Hovedside
METAR-TAF:

METAR-TAF

Lufthavner :

Şırnak, Tyrkia

breddegrad: 37-21-50N, lengdegrad: 42-03-36E, høyde over havet: 621 m

Gjeldene værobservasjon

Denne rapporten ble laget for 1 time og 7 minutter siden, klokken 14:50 UTC
Vind 9 kt fra Øst
Temperatur 16°C
Luftfuktighet 51%
Trykk 1016 hPa
Sikt 10 km eller mer
Få skyer i en høyde av 4000 ft
Brutte skyer i en høyde av 18000 ft

METAR: LTCV 301450Z 09009KT 9999 FEW040 BKN180 16/06 Q1016

Tid: 18:57 (15:57 UTC)

Varsel

Denne rapporten ble laget for 5 timer og 17 minutter siden, klokken 10:40 UTC
Varsel gyldig fra 30. klokken 12 UTC til 01. klokken 12 UTC
Vind 8 kt fra Øst-sørøst
Sikt 10 km eller mer
ingen skyer under 1500 m og ingen bygeskyer
Blir
fra 01. klokken 02 UTC til 01. klokken 05 UTC
Få skyer i en høyde av 4000 ft
Brutte skyer i en høyde av 10000 ft

TAF: LTCV 301040Z 3012/0112 11008KT CAVOK BECMG 0102/0105 FEW040 BKN100

Værobservasjoner og værvarsel for over 4000 flyplasser (METAR- og TAF-rapporter).

Tilgjengelige stasjoner er representert av de røde og gule prikkene på kartet.

Hold musepekeren over prikken for å se navnet på stasjonen.

Klikk så for å se værobservasjoner og -varsler.

For å forandre kartet kan du klikke på den grønne knappen med svart kryss for å zoome inn, på den grønne knappen med strek for å zoome ut, eller på de grønne pilene for å se tilstøtende kart.


METAR-TAF: